KCUH/CUH METAR and TAF weather

Enter ICAO airport designator
Station Type Date Time Source
KCUH METAR 2021/02/27 03:15 UTC NOAA

KCUH 270315Z AUTO 00000KT 10SM CLR 06/06 A2988 RMK AO2 T00590055


Station Type Date Time Source
KCUH Decoded METAR 2021/02/27 03:15 UTC NOAA

Cushing, Cushing Municipal Airport, OK, United States (KCUH) 35-56-59N 096-46-22W
Feb 26, 2021 - 10:15 PM EST / 2021.02.27 0315 UTC
Wind: Calm:0
Visibility: 10 mile(s):0
Sky conditions: clear
Temperature: 42.6 F (5.9 C)
Dew Point: 41.9 F (5.5 C)
Relative Humidity: 97%
Pressure (altimeter): 29.88 in. Hg (1011 hPa)
ob: KCUH 270315Z AUTO 00000KT 10SM CLR 06/06 A2988 RMK AO2 T00590055
cycle: 3

Station Type Date Time Source
KCUH TAF UTC NOAA

Error!

Example: see airport list